»·PEaware :: N17CN KSNA-KSBD

N17CN :: KSNA-KSBD

FLIGHT INFORMATION

Flight Status: Arrived
Operator: Privately registered:
United States
More flights under this callsign
Pilot: Sean M. (20132)
Aircraft: CESSNA 172 SKYHAWK
(C172)
More flights by this aircraft type
Origin: KSNA John Wayne-Orange Co
United States
Destination: KSBD San Bernardino Intl
United States
More flights between these airports :: More routes between these airports
Route: +
File this flight plan on PilotEdge
Remarks:
Altitude:
(Current/Filed)
0ft
Speed:
(Current/Filed)
0kts
Departed: 07-Jul-20 12:56 PM
Arrived: 07-Jul-20 01:22 PM
Distance/Time
Traveled:
41nm/0:26
Distance/Time
To Go:
Arrived

Flight Plot

Page will automatically refresh every two minutes.


Map Options




Map Legend


Flown Route
Filed Route
Departure Airport
Arrival Airport
Navaid (VOR, NDB)
Fix

Horizontal Profiles

Position Reports

Time Latitude Longitude Heading Altitude Ground
Speed
07-Jul-20 12:41 33.676032 -117.871360 219 60ft 0kts
07-Jul-20 12:42 33.676032 -117.871360 219 60ft 0kts
07-Jul-20 12:43 33.676032 -117.871360 219 60ft 0kts
07-Jul-20 12:44 33.676032 -117.871360 219 60ft 0kts
07-Jul-20 12:45 33.676032 -117.871360 219 60ft 0kts
07-Jul-20 12:46 33.676032 -117.871360 219 60ft 0kts
07-Jul-20 12:47 33.676032 -117.871360 219 60ft 0kts
07-Jul-20 12:48 33.676032 -117.871360 219 60ft 0kts
07-Jul-20 12:49 33.676032 -117.871360 219 60ft 0kts
07-Jul-20 12:50 33.675813 -117.871144 128 60ft 14kts
07-Jul-20 12:51 33.680535 -117.867498 24 60ft 24kts
07-Jul-20 12:52 33.681260 -117.866593 102 60ft 0kts
07-Jul-20 12:53 33.681260 -117.866593 102 60ft 0kts
07-Jul-20 12:54 33.681260 -117.866593 102 60ft 0kts
07-Jul-20 12:55 33.668365 -117.873569 215 324ft 94kts
07-Jul-20 12:56 33.658656 -117.902130 251 1196ft 97kts
07-Jul-20 12:57 33.650005 -117.932919 251 1990ft 100kts
07-Jul-20 12:58 33.657298 -117.966105 351 2022ft 130kts
07-Jul-20 12:59 33.677932 -117.933926 68 2027ft 133kts
07-Jul-20 13:00 33.695060 -117.894650 55 2027ft 133kts
07-Jul-20 13:01 33.716632 -117.858375 53 2027ft 133kts
07-Jul-20 13:02 33.745864 -117.831544 40 2024ft 133kts
07-Jul-20 13:03 33.773772 -117.802758 40 2185ft 123kts
07-Jul-20 13:04 33.795840 -117.776201 55 2868ft 107kts
07-Jul-20 13:05 33.812033 -117.747328 55 3562ft 102kts
07-Jul-20 13:06 33.827561 -117.719477 55 4259ft 98kts
07-Jul-20 13:07 33.842466 -117.692625 55 4955ft 94kts
07-Jul-20 13:08 33.856856 -117.666753 55 5535ft 101kts
07-Jul-20 13:09 33.875206 -117.633622 55 5537ft 127kts
07-Jul-20 13:10 33.895066 -117.597867 56 5536ft 129kts
07-Jul-20 13:11 33.915088 -117.561756 56 5536ft 129kts
07-Jul-20 13:12 33.935084 -117.525610 55 5536ft 129kts
07-Jul-20 13:13 33.955074 -117.489485 55 5536ft 129kts
07-Jul-20 13:14 33.975066 -117.453320 55 5536ft 129kts
07-Jul-20 13:15 33.995375 -117.416475 56 5065ft 133kts
07-Jul-20 13:16 34.016294 -117.378547 56 4358ft 137kts
07-Jul-20 13:17 34.036569 -117.341717 56 3534ft 114kts
07-Jul-20 13:18 34.057885 -117.319130 45 2630ft 109kts
07-Jul-20 13:19 34.077884 -117.292879 55 1863ft 111kts
07-Jul-20 13:20 34.086706 -117.267286 79 1515ft 71kts
07-Jul-20 13:22 34.092060 -117.245908 70 1091ft 33kts
07-Jul-20 13:23 34.094561 -117.240685 35 1101ft 0kts
07-Jul-20 13:24 34.094561 -117.240685 34 1101ft 0kts
07-Jul-20 13:25 34.097329 -117.234268 70 1121ft 27kts
07-Jul-20 13:26 34.099853 -117.226560 40 1139ft 13kts
07-Jul-20 13:27 34.100598 -117.225643 88 1143ft 0kts
07-Jul-20 13:28 34.100598 -117.225643 88 1143ft 0kts
07-Jul-20 13:29 34.100598 -117.225643 88 1143ft 0kts
07-Jul-20 13:30 34.100598 -117.225643 88 1143ft 0kts
07-Jul-20 13:31 34.100598 -117.225643 88 1143ft 0kts
07-Jul-20 13:32 34.100598 -117.225643 88 1143ft 0kts
07-Jul-20 13:33 34.100598 -117.225643 88 1143ft 0kts
07-Jul-20 13:34 34.100598 -117.225643 88 1143ft 0kts
07-Jul-20 13:35 34.100598 -117.225643 88 1143ft 0kts
07-Jul-20 13:36 34.100598 -117.225643 88 1143ft 0kts

Navigation Log

Ident Type
Flight plan parsing failed, navigation log unavailable